Time;durP1;ratioP1;P1;durP2;ratioP2;P2;SDS_P1;SDS_P2;PMS_P1;PMS_P2;Temp;Humidity;BMP_temperature;BMP_pressure;BME280_temperature;BME280_humidity;BME280_pressure;Samples;Min_cycle;Max_cycle;Signal;HPM_P1;HPM_P2
2022/04/24 16:46:53;;;;;;;7.40;2.20;;;15.10;1.00;;;;;;4719636;23;20339;-91
2022/04/24 16:49:29;;;;;;;5.88;2.50;;;14.50;1.00;;;;;;4878862;29;20088;-86
2022/04/24 17:00:14;;;;;;;5.90;2.15;;;13.60;1.00;;;;;;4848476;29;20046;-87
2022/04/24 17:44:35;;;;;;;5.28;1.77;;;12.90;1.00;;;;;;4857155;29;20046;-93
2022/04/24 17:47:06;;;;;;;5.45;1.80;;;12.90;1.00;;;;;;4857673;29;20041;-91
2022/04/24 17:49:37;;;;;;;13.07;3.67;;;13.90;1.00;;;;;;4846231;29;20042;-93
2022/04/24 17:52:09;;;;;;;4.40;1.73;;;13.40;1.00;;;;;;4866909;29;20052;-92
2022/04/24 17:55:04;;;;;;;3.28;1.83;;;13.40;1.00;;;;;;4863052;29;20068;-91
2022/04/24 17:57:32;;;;;;;3.90;1.90;;;13.90;1.00;;;;;;4863439;29;20128;-90
2022/04/24 18:00:08;;;;;;;5.35;1.95;;;13.30;1.00;;;;;;4863492;29;20049;-90
2022/04/24 18:02:39;;;;;;;4.60;1.88;;;12.80;1.00;;;;;;4859076;29;20060;-92
2022/04/24 18:05:12;;;;;;;6.13;1.92;;;13.10;1.00;;;;;;4854081;29;20049;-90
2022/04/24 18:07:41;;;;;;;12.50;1.90;;;12.60;1.00;;;;;;4852768;29;20046;-90
2022/04/24 18:10:10;;;;;;;4.35;1.75;;;13.20;1.00;;;;;;4854833;29;20050;-90
2022/04/24 18:12:43;;;;;;;5.13;1.85;;;13.40;1.00;;;;;;4855878;29;20097;-90
2022/04/24 18:15:11;;;;;;;3.25;1.85;;;12.90;1.00;;;;;;4857984;29;20809;-90
2022/04/24 18:17:38;;;;;;;6.53;2.17;;;12.60;1.00;;;;;;4856831;29;20534;-90
2022/04/24 18:20:08;;;;;;;3.83;1.60;;;12.40;1.00;;;;;;4859155;29;20041;-90
2022/04/24 18:22:39;;;;;;;7.35;1.63;;;13.30;1.00;;;;;;4863334;29;20046;-90
2022/04/24 18:25:07;;;;;;;8.00;2.10;;;13.90;1.00;;;;;;4862966;29;20053;-90
2022/04/24 18:27:34;;;;;;;5.65;2.17;;;13.10;1.00;;;;;;4862937;29;20128;-91
2022/04/24 18:30:04;;;;;;;7.10;2.33;;;12.50;1.00;;;;;;4860020;29;20061;-91
2022/04/24 18:32:41;;;;;;;5.72;1.75;;;12.90;1.00;;;;;;4848006;29;20523;-91
2022/04/24 18:35:12;;;;;;;6.18;2.45;;;13.00;1.00;;;;;;4851855;29;20054;-90
2022/04/24 18:37:44;;;;;;;6.15;2.22;;;12.60;1.00;;;;;;4858884;29;20070;-89
2022/04/24 18:40:23;;;;;;;5.07;2.20;;;12.50;1.00;;;;;;4844402;29;20081;-90
2022/04/24 18:42:54;;;;;;;7.78;2.47;;;12.80;1.00;;;;;;4845438;29;20102;-89
2022/04/24 18:45:24;;;;;;;2.90;1.90;;;12.80;1.00;;;;;;4847535;29;20076;-90
2022/04/24 18:47:52;;;;;;;5.72;2.10;;;13.60;1.00;;;;;;4858276;29;20113;-89
2022/04/24 18:50:21;;;;;;;8.88;1.92;;;13.00;1.00;;;;;;4862145;29;20499;-89
2022/04/24 18:52:49;;;;;;;12.13;2.22;;;12.90;1.00;;;;;;4861222;29;20132;-91
2022/04/24 18:55:18;;;;;;;4.72;1.75;;;13.10;1.00;;;;;;4855082;29;20108;-89
2022/04/24 18:57:45;;;;;;;8.48;2.10;;;13.10;1.00;;;;;;4851551;29;20434;-91
2022/04/24 19:00:30;;;;;;;6.93;2.00;;;12.00;1.00;;;;;;4854697;29;20037;-90
2022/04/24 19:03:01;;;;;;;5.65;2.22;;;12.20;1.00;;;;;;4846571;29;20045;-90
2022/04/24 19:08:13;;;;;;;6.93;1.98;;;12.30;1.00;;;;;;4844263;29;20046;-91
2022/04/24 19:13:27;;;;;;;6.47;2.60;;;12.60;1.00;;;;;;4862780;29;20050;-89
2022/04/24 19:15:54;;;;;;;6.60;2.20;;;12.50;1.00;;;;;;4851242;29;20097;-90
2022/04/24 19:18:35;;;;;;;6.68;1.70;;;12.40;1.00;;;;;;4856968;29;20046;-91
2022/04/24 19:21:04;;;;;;;11.20;1.88;;;12.40;1.00;;;;;;4854536;29;20045;-89
2022/04/24 19:23:34;;;;;;;7.45;2.35;;;12.60;1.00;;;;;;4827680;29;20050;-89
2022/04/24 19:26:06;;;;;;;3.42;1.55;;;12.40;1.00;;;;;;4847552;29;20049;-90
2022/04/24 19:28:37;;;;;;;7.40;2.13;;;12.80;1.00;;;;;;4843893;29;20050;-90
2022/04/24 19:31:14;;;;;;;5.80;1.58;;;12.70;1.00;;;;;;4859134;29;20050;-89
2022/04/24 19:33:41;;;;;;;13.77;2.38;;;12.50;1.00;;;;;;4852676;29;20049;-89
2022/04/24 19:36:09;;;;;;;8.25;2.17;;;12.40;1.00;;;;;;4841646;29;20049;-91
2022/04/24 19:38:39;;;;;;;9.57;2.03;;;12.30;1.00;;;;;;4845158;29;20132;-90
2022/04/24 19:41:06;;;;;;;13.35;1.77;;;12.20;1.00;;;;;;4828592;29;20101;-88
2022/04/24 19:43:33;;;;;;;9.10;1.95;;;12.20;1.00;;;;;;4844187;29;20110;-89
2022/04/24 19:46:00;;;;;;;7.07;3.00;;;12.20;1.00;;;;;;4844287;29;20037;-90
2022/04/24 19:51:15;;;;;;;3.53;1.40;;;12.20;1.00;;;;;;4855609;29;20065;-88
2022/04/24 19:53:45;;;;;;;5.50;2.00;;;12.60;1.00;;;;;;4862809;29;20141;-90
2022/04/24 19:56:15;;;;;;;2.97;1.60;;;11.90;1.00;;;;;;4862379;29;20510;-89
2022/04/24 19:58:45;;;;;;;5.18;2.10;;;12.20;1.00;;;;;;4859238;29;20046;-88
2022/04/24 20:01:12;;;;;;;6.88;2.70;;;12.40;1.00;;;;;;4847303;29;20053;-90
2022/04/24 20:03:42;;;;;;;6.18;1.83;;;12.30;1.00;;;;;;4853591;29;20046;-91
2022/04/24 20:06:13;;;;;;;9.85;2.33;;;12.00;1.00;;;;;;4844764;29;20050;-89
2022/04/24 20:08:57;;;;;;;10.02;3.00;;;11.70;1.00;;;;;;4844957;29;20045;-89
2022/04/24 20:11:40;;;;;;;4.55;2.00;;;11.60;62.70;;;;;;4844412;29;20038;-87
2022/04/24 20:14:13;;;;;;;4.93;2.10;;;11.90;66.10;;;;;;4849843;29;20094;-88
2022/04/24 20:16:43;;;;;;;6.15;2.60;;;11.50;88.10;;;;;;4850519;29;20045;-88
2022/04/24 20:19:11;;;;;;;11.02;2.45;;;11.50;95.30;;;;;;4863086;29;20500;-87
2022/04/24 20:21:39;;;;;;;4.75;1.98;;;11.70;94.20;;;;;;4852910;29;20093;-88
2022/04/24 20:24:12;;;;;;;5.90;1.98;;;11.40;99.00;;;;;;4850490;29;20048;-87
2022/04/24 20:26:39;;;;;;;6.82;2.85;;;11.70;99.90;;;;;;4853570;29;20556;-91
2022/04/24 20:29:08;;;;;;;7.90;2.47;;;11.60;99.90;;;;;;4856709;29;20046;-91
2022/04/24 20:31:47;;;;;;;13.18;3.65;;;11.60;99.90;;;;;;4850410;29;20403;-90
2022/04/24 20:34:19;;;;;;;4.63;2.42;;;11.60;99.90;;;;;;4841018;29;20107;-93
2022/04/24 20:36:50;;;;;;;5.72;2.35;;;11.80;99.90;;;;;;4843127;29;20122;-91
2022/04/24 20:39:20;;;;;;;7.55;1.63;;;11.90;99.80;;;;;;4845663;29;20041;-90
2022/04/24 20:41:47;;;;;;;6.53;2.25;;;11.90;98.40;;;;;;4862215;29;20041;-90
2022/04/24 20:44:15;;;;;;;11.75;2.10;;;11.80;99.90;;;;;;4860418;29;20128;-90
2022/04/24 20:46:43;;;;;;;3.80;2.30;;;11.80;99.90;;;;;;4861092;29;20054;-88
2022/04/24 20:49:10;;;;;;;6.45;2.58;;;11.70;99.90;;;;;;4830509;29;20077;-90
2022/04/24 20:51:38;;;;;;;7.70;2.13;;;11.50;99.90;;;;;;4845761;29;20090;-90
2022/04/24 20:54:09;;;;;;;13.10;3.35;;;11.70;99.90;;;;;;4860596;29;20070;-92
2022/04/24 20:56:36;;;;;;;10.52;2.72;;;11.70;99.90;;;;;;4861331;29;20053;-91
2022/04/24 20:59:10;;;;;;;12.35;2.20;;;11.60;99.90;;;;;;4861242;29;20061;-91
2022/04/24 21:01:45;;;;;;;6.30;2.08;;;11.80;99.90;;;;;;4846237;29;20060;-92
2022/04/24 21:04:30;;;;;;;8.30;2.88;;;11.60;99.90;;;;;;4861467;29;20132;-91
2022/04/24 21:07:18;;;;;;;;;;;;;;;;;;;;;
2022/04/24 21:10:18;;;;;;;4.18;2.55;;;11.40;99.90;;;;;;4860577;29;20570;-93
2022/04/24 21:13:07;;;;;;;6.93;2.55;;;11.40;99.90;;;;;;4860441;29;20052;-92
2022/04/24 21:16:35;;;;;;;8.02;1.90;;;11.30;99.90;;;;;;4860073;29;20045;-93
2022/04/24 21:33:39;;;;;;;9.15;3.25;;;11.40;99.90;;;;;;4881732;29;20049;-91
2022/04/24 21:36:46;;;;;;;;;;;;;;;;;;;;;
2022/04/24 21:44:21;;;;;;;7.82;2.22;;;11.70;99.90;;;;;;4807280;29;20057;-90
2022/04/24 21:48:43;;;;;;;5.50;2.92;;;11.80;99.90;;;;;;4794918;29;20058;-92
2022/04/24 21:52:00;;;;;;;7.30;3.30;;;11.60;99.90;;;;;;4730609;29;20473;-92
2022/04/24 22:05:44;;;;;;;5.07;2.80;;;11.60;99.90;;;;;;4807341;29;20047;-92
2022/04/24 22:09:10;;;;;;;7.13;3.80;;;11.20;99.90;;;;;;4793025;29;20462;-92
2022/04/24 22:11:47;;;;;;;13.57;3.53;;;11.50;99.90;;;;;;4857658;29;20239;-91
2022/04/24 22:29:49;;;;;;;8.98;3.10;;;11.30;99.90;;;;;;4835046;29;20488;-91
2022/04/24 22:33:00;;;;;;;9.35;3.88;;;11.20;99.90;;;;;;4833069;29;20496;-91
2022/04/24 22:39:07;;;;;;;5.50;3.30;;;11.00;99.90;;;;;;4845779;29;19925;-92
2022/04/24 22:46:05;;;;;;;8.38;4.07;;;10.70;99.90;;;;;;4859479;29;20053;-91
2022/04/24 22:56:37;;;;;;;8.55;3.55;;;10.90;99.90;;;;;;4862513;29;20052;-92
2022/04/24 23:03:33;;;;;;;6.72;3.25;;;11.00;95.40;;;;;;4863133;29;20456;-91
2022/04/24 23:10:44;;;;;;;6.10;2.63;;;11.10;92.80;;;;;;4768491;30;20055;-92
2022/04/24 23:13:38;;;;;;;4.70;2.90;;;10.80;90.70;;;;;;4789370;30;20108;-93
2022/04/24 23:17:12;;;;;;;;;;;;;;;;;;;;;
2022/04/24 23:20:47;;;;;;;8.15;3.50;;;10.60;91.10;;;;;;4784866;30;20055;-91
2022/04/24 23:24:50;;;;;;;7.43;4.25;;;10.90;94.00;;;;;;4813134;29;20038;-92
2022/04/24 23:31:49;;;;;;;7.50;3.60;;;10.60;93.60;;;;;;4821054;29;20050;-91
2022/04/24 23:34:48;;;;;;;4.63;2.25;;;10.80;86.90;;;;;;4818418;29;20056;-91
2022/04/24 23:38:39;;;;;;;6.18;3.03;;;11.00;94.50;;;;;;4825439;29;20051;-91
2022/04/24 23:42:22;;;;;;;7.72;2.88;;;10.90;90.20;;;;;;4780288;29;20047;-91
2022/04/24 23:53:27;;;;;;;6.38;3.80;;;11.20;72.20;;;;;;4825036;29;20145;-92
2022/04/24 23:56:18;;;;;;;6.60;3.10;;;10.80;61.90;;;;;;4835380;29;20390;-92
